createdAt,value
2023-01-26T00:01:23.016Z,19.07
2023-01-26T00:03:51.202Z,21.73
2023-01-26T00:06:20.486Z,19.37
2023-01-26T00:08:50.052Z,19.53
2023-01-26T00:11:29.499Z,20.90
2023-01-26T00:13:58.997Z,19.60
2023-01-26T00:16:27.765Z,21.63
2023-01-26T00:18:55.150Z,20.87
2023-01-26T00:21:24.000Z,20.33
2023-01-26T00:23:52.448Z,19.17
2023-01-26T00:26:22.992Z,19.43
2023-01-26T00:28:50.859Z,20.43
2023-01-26T00:31:25.618Z,21.03
2023-01-26T00:33:55.177Z,20.13
2023-01-26T00:36:22.565Z,19.77
2023-01-26T00:38:50.041Z,21.00
2023-01-26T00:41:35.927Z,20.90
2023-01-26T00:44:03.245Z,19.50
2023-01-26T00:46:30.708Z,20.37
2023-01-26T00:49:00.504Z,20.60
2023-01-26T00:51:28.126Z,22.03
2023-01-26T00:53:55.610Z,22.10
2023-01-26T00:56:22.977Z,22.03
2023-01-26T00:58:50.210Z,21.57
2023-01-26T01:01:17.505Z,20.23
2023-01-26T01:03:44.843Z,22.30
2023-01-26T01:06:12.181Z,20.50
2023-01-26T01:08:39.468Z,21.60
2023-01-26T01:11:09.917Z,20.70
2023-01-26T01:13:38.147Z,22.07
2023-01-26T01:16:07.564Z,21.10
2023-01-26T01:18:35.741Z,21.00
2023-01-26T01:21:08.256Z,22.93
2023-01-26T01:23:36.780Z,21.37
2023-01-26T01:26:05.267Z,23.23
2023-01-26T01:28:33.911Z,21.57
2023-01-26T01:31:08.374Z,22.83
2023-01-26T01:33:36.593Z,22.20
2023-01-26T01:36:10.353Z,24.17
2023-01-26T01:38:37.785Z,22.47
2023-01-26T01:41:05.139Z,22.10
2023-01-26T01:43:32.609Z,22.17
2023-01-26T01:46:03.242Z,21.80
2023-01-26T01:48:38.955Z,22.03
2023-01-26T01:51:13.432Z,21.93
2023-01-26T01:53:45.330Z,21.83
2023-01-26T01:56:21.467Z,21.37
2023-01-26T01:58:53.033Z,21.33
2023-01-26T02:01:20.462Z,20.13
2023-01-26T02:03:51.619Z,21.47
2023-01-26T02:06:55.602Z,21.50
2023-01-26T02:09:54.783Z,20.30
2023-01-26T02:12:27.337Z,20.73
2023-01-26T02:14:55.099Z,20.70
2023-01-26T02:17:22.530Z,19.33
2023-01-26T02:20:11.579Z,20.10
2023-01-26T02:23:17.921Z,19.50
2023-01-26T02:25:54.041Z,19.83
2023-01-26T02:28:25.281Z,22.30
2023-01-26T02:30:54.282Z,20.50
2023-01-26T02:33:27.500Z,21.63
2023-01-26T02:35:59.151Z,21.43
2023-01-26T02:38:33.761Z,21.80
2023-01-26T02:41:10.954Z,22.67
2023-01-26T02:43:38.791Z,20.57
2023-01-26T02:46:06.114Z,23.50
2023-01-26T02:48:55.830Z,20.87
2023-01-26T02:51:23.908Z,21.73
2023-01-26T02:53:51.143Z,20.90
2023-01-26T02:56:18.416Z,21.23
2023-01-26T02:58:45.655Z,21.07
2023-01-26T03:01:12.969Z,24.87
2023-01-26T03:03:47.802Z,22.73
2023-01-26T03:06:15.792Z,19.77
2023-01-26T03:08:43.227Z,21.10
2023-01-26T03:11:10.618Z,22.07
2023-01-26T03:13:38.110Z,22.57
2023-01-26T03:16:10.158Z,20.93
2023-01-26T03:18:56.015Z,21.50
2023-01-26T03:21:42.491Z,21.00
2023-01-26T03:24:32.629Z,21.40
2023-01-26T03:27:20.602Z,21.63
2023-01-26T03:29:47.890Z,21.80
2023-01-26T03:32:15.605Z,22.03
2023-01-26T03:34:43.464Z,20.90
2023-01-26T03:37:11.461Z,20.27
2023-01-26T03:40:06.145Z,20.53
2023-01-26T03:42:54.661Z,20.80
2023-01-26T03:45:40.995Z,20.67
2023-01-26T03:48:29.750Z,19.63
2023-01-26T03:51:16.652Z,19.37
2023-01-26T03:54:03.064Z,20.73
2023-01-26T03:56:33.972Z,21.63
2023-01-26T03:59:09.442Z,21.70
2023-01-26T04:02:03.296Z,20.23
2023-01-26T04:04:50.386Z,18.80
2023-01-26T04:07:37.826Z,19.00
2023-01-26T04:10:05.463Z,19.37
2023-01-26T04:12:33.355Z,18.67
2023-01-26T04:15:30.982Z,16.93
2023-01-26T04:18:16.777Z,17.97
2023-01-26T04:21:02.456Z,17.47
2023-01-26T04:23:29.905Z,17.90
2023-01-26T04:25:57.272Z,18.13
2023-01-26T04:28:24.633Z,17.87
2023-01-26T04:30:52.140Z,16.80
2023-01-26T04:33:19.485Z,17.27
2023-01-26T04:35:46.843Z,17.40
2023-01-26T04:38:14.255Z,16.40
2023-01-26T04:40:42.576Z,17.73
2023-01-26T04:43:11.129Z,16.03
2023-01-26T04:45:38.426Z,16.53
2023-01-26T04:48:06.622Z,16.40
2023-01-26T04:50:33.999Z,17.57
2023-01-26T04:53:02.132Z,16.20
2023-01-26T04:55:30.416Z,16.50
2023-01-26T04:57:58.425Z,17.37
2023-01-26T05:00:26.106Z,16.50
2023-01-26T05:02:54.086Z,16.73
2023-01-26T05:05:21.487Z,17.10
2023-01-26T05:07:50.323Z,17.93
2023-01-26T05:10:18.040Z,15.73
2023-01-26T05:12:55.141Z,16.90
2023-01-26T05:15:33.965Z,16.93
2023-01-26T05:18:07.125Z,16.83
2023-01-26T05:20:55.092Z,17.10
2023-01-26T05:23:34.828Z,16.00
2023-01-26T05:26:24.953Z,15.90
2023-01-26T05:28:58.014Z,15.10
2023-01-26T05:31:26.789Z,15.93
2023-01-26T05:33:54.794Z,16.43
2023-01-26T05:36:24.297Z,15.90
2023-01-26T05:38:51.819Z,15.47
2023-01-26T05:41:23.423Z,15.53
2023-01-26T05:44:10.495Z,15.67
2023-01-26T05:46:48.605Z,15.97
2023-01-26T05:49:16.024Z,14.63
2023-01-26T05:51:43.273Z,16.77
2023-01-26T05:54:10.487Z,14.67
2023-01-26T05:56:37.798Z,16.97
2023-01-26T05:59:06.449Z,17.17
2023-01-26T06:01:34.226Z,16.33
2023-01-26T06:04:05.514Z,15.67
2023-01-26T06:06:42.189Z,16.13
2023-01-26T06:09:35.646Z,15.87
2023-01-26T06:12:02.974Z,17.27
2023-01-26T06:14:47.152Z,16.70
2023-01-26T06:17:17.020Z,18.63
2023-01-26T06:19:45.684Z,18.67
2023-01-26T06:22:14.437Z,16.47
2023-01-26T06:24:46.832Z,18.03
2023-01-26T06:27:16.200Z,17.83
2023-01-26T06:29:45.735Z,16.87
2023-01-26T06:32:16.383Z,18.00
2023-01-26T06:34:45.373Z,14.87
2023-01-26T06:37:14.013Z,17.30
2023-01-26T06:39:42.033Z,16.53
2023-01-26T06:42:09.628Z,17.10
2023-01-26T06:44:38.466Z,15.87
2023-01-26T06:47:07.088Z,16.40
2023-01-26T06:49:34.695Z,16.47
2023-01-26T06:52:25.416Z,16.57
2023-01-26T06:54:58.649Z,17.77
2023-01-26T06:57:44.567Z,16.27
2023-01-26T07:00:30.787Z,17.70
2023-01-26T07:03:26.364Z,19.63
2023-01-26T07:05:53.662Z,17.57
2023-01-26T07:08:20.971Z,18.20
2023-01-26T07:10:49.820Z,18.57
2023-01-26T07:13:17.280Z,17.73
2023-01-26T07:15:44.527Z,19.73
2023-01-26T07:18:11.821Z,17.17
2023-01-26T07:20:39.119Z,17.40
2023-01-26T07:23:06.365Z,17.37
2023-01-26T07:25:33.549Z,16.97
2023-01-26T07:28:00.777Z,15.23
2023-01-26T07:30:28.069Z,16.83
2023-01-26T07:32:55.297Z,15.00
2023-01-26T07:35:22.546Z,15.07
2023-01-26T07:37:49.843Z,15.27
2023-01-26T07:40:17.451Z,14.63
2023-01-26T07:42:44.635Z,14.47
2023-01-26T07:45:37.808Z,15.63
2023-01-26T07:48:05.144Z,14.37
2023-01-26T07:50:32.433Z,14.57
2023-01-26T07:53:02.650Z,13.23
2023-01-26T07:55:30.061Z,15.87
2023-01-26T07:57:57.937Z,16.27
2023-01-26T08:00:25.243Z,15.13
2023-01-26T08:02:52.529Z,15.47
2023-01-26T08:05:19.926Z,14.70
2023-01-26T08:07:47.418Z,14.53
2023-01-26T08:10:14.834Z,14.73
2023-01-26T08:12:42.050Z,14.63
2023-01-26T08:15:13.042Z,15.37
2023-01-26T08:17:40.246Z,13.63
2023-01-26T08:20:08.386Z,15.37
2023-01-26T08:22:35.636Z,16.07
2023-01-26T08:25:02.987Z,15.47
2023-01-26T08:27:30.231Z,13.67
2023-01-26T08:29:57.494Z,14.47
2023-01-26T08:32:25.341Z,15.60
2023-01-26T08:34:52.608Z,14.83
2023-01-26T08:37:19.834Z,14.63
2023-01-26T08:39:47.080Z,16.17
2023-01-26T08:42:14.363Z,14.43
2023-01-26T08:44:41.604Z,13.47
2023-01-26T08:47:11.334Z,13.93
2023-01-26T08:49:41.884Z,14.50
2023-01-26T08:52:09.246Z,15.87
2023-01-26T08:54:36.556Z,13.33
2023-01-26T08:57:03.870Z,14.10
2023-01-26T08:59:31.127Z,15.17
2023-01-26T09:01:58.468Z,13.37
2023-01-26T09:04:27.332Z,13.93
2023-01-26T09:06:54.705Z,13.07
2023-01-26T09:09:22.191Z,12.97
2023-01-26T09:11:49.457Z,14.83
2023-01-26T09:14:16.806Z,15.93
2023-01-26T09:16:44.105Z,15.00
2023-01-26T09:19:11.477Z,16.33
2023-01-26T09:21:39.731Z,14.90
2023-01-26T09:24:10.321Z,15.57
2023-01-26T09:26:37.684Z,15.63
2023-01-26T09:29:06.031Z,16.00
2023-01-26T09:31:33.352Z,15.87
2023-01-26T09:34:00.688Z,15.57
2023-01-26T09:36:27.963Z,16.47
2023-01-26T09:38:55.376Z,16.73
2023-01-26T09:41:48.504Z,16.47
2023-01-26T09:44:20.958Z,15.33
2023-01-26T09:47:17.750Z,17.10
2023-01-26T09:50:08.843Z,16.70
2023-01-26T09:53:04.690Z,15.30
2023-01-26T09:55:32.336Z,16.13
2023-01-26T09:58:11.967Z,16.23
2023-01-26T10:00:53.272Z,16.00
2023-01-26T10:03:38.084Z,15.93
2023-01-26T10:06:26.742Z,17.63
2023-01-26T10:09:27.843Z,16.33
2023-01-26T10:11:58.359Z,17.37
2023-01-26T10:14:34.153Z,17.47
2023-01-26T10:17:03.686Z,16.93
2023-01-26T10:19:45.866Z,18.13
2023-01-26T10:22:30.295Z,17.63
2023-01-26T10:25:01.118Z,17.10
2023-01-26T10:27:29.483Z,17.93
2023-01-26T10:29:56.870Z,18.50
2023-01-26T10:32:24.280Z,18.07
2023-01-26T10:34:53.285Z,18.93
2023-01-26T10:37:23.560Z,17.23
2023-01-26T10:40:04.444Z,20.53
2023-01-26T10:42:34.104Z,17.07
2023-01-26T10:45:04.514Z,19.37
2023-01-26T10:47:31.798Z,19.07
2023-01-26T10:50:21.182Z,19.33
2023-01-26T10:53:03.116Z,18.60
2023-01-26T10:55:32.334Z,17.97
2023-01-26T10:58:00.875Z,16.43
2023-01-26T11:00:33.523Z,17.50
2023-01-26T11:03:19.423Z,18.37
2023-01-26T11:06:06.158Z,18.60
2023-01-26T11:08:36.005Z,16.00
2023-01-26T11:11:04.836Z,18.10
2023-01-26T11:13:32.172Z,19.27
2023-01-26T11:16:19.891Z,19.37
2023-01-26T11:19:14.700Z,16.27
2023-01-26T11:21:48.336Z,18.50
2023-01-26T11:24:34.772Z,18.70
2023-01-26T11:27:30.054Z,18.50
2023-01-26T11:30:34.514Z,17.73
2023-01-26T11:33:16.179Z,18.00
2023-01-26T11:35:56.874Z,16.50
2023-01-26T11:38:42.941Z,18.07
2023-01-26T11:41:22.147Z,15.30
2023-01-26T11:44:18.364Z,16.63
2023-01-26T11:47:10.530Z,16.73
2023-01-26T11:50:05.760Z,18.17
2023-01-26T11:52:55.490Z,16.77
2023-01-26T11:55:32.276Z,16.93
2023-01-26T11:58:42.153Z,16.67
2023-01-26T12:01:41.378Z,16.50
2023-01-26T12:04:19.833Z,17.03
2023-01-26T12:06:58.085Z,15.37
2023-01-26T12:09:38.895Z,16.67
2023-01-26T12:12:39.170Z,17.90
2023-01-26T12:15:12.186Z,15.93
2023-01-26T12:17:55.995Z,17.73
2023-01-26T12:20:34.949Z,19.57
2023-01-26T12:23:08.236Z,17.90
2023-01-26T12:25:38.080Z,19.57
2023-01-26T12:28:18.533Z,18.03
2023-01-26T12:31:01.335Z,18.80
2023-01-26T12:33:30.797Z,19.97
2023-01-26T12:36:33.331Z,19.30
2023-01-26T12:39:12.188Z,18.73
2023-01-26T12:42:02.296Z,16.40
2023-01-26T12:44:35.927Z,18.20
2023-01-26T12:47:06.240Z,18.27
2023-01-26T12:49:55.595Z,16.47
2023-01-26T12:52:37.332Z,16.40
2023-01-26T12:55:22.135Z,16.53
2023-01-26T12:58:02.635Z,17.33
2023-01-26T13:00:33.963Z,15.77
2023-01-26T13:03:18.629Z,15.63
2023-01-26T13:05:58.418Z,15.23
2023-01-26T13:08:31.999Z,13.97
2023-01-26T13:11:09.516Z,13.80
2023-01-26T13:13:55.188Z,13.97
2023-01-26T13:16:25.588Z,12.30
2023-01-26T13:18:54.771Z,13.37
2023-01-26T13:21:29.219Z,12.43
2023-01-26T13:23:56.579Z,12.13
2023-01-26T13:26:32.969Z,11.87
2023-01-26T13:29:25.029Z,12.37
2023-01-26T13:31:54.891Z,12.90
2023-01-26T13:34:38.797Z,11.23
2023-01-26T13:37:19.242Z,11.40
2023-01-26T13:39:54.424Z,11.63
2023-01-26T13:42:46.538Z,11.50
2023-01-26T13:45:43.964Z,10.47
2023-01-26T13:48:28.644Z,9.50
2023-01-26T13:51:01.371Z,10.83
2023-01-26T13:53:43.593Z,11.47
2023-01-26T13:56:41.276Z,11.07
2023-01-26T13:59:13.830Z,11.03
2023-01-26T14:01:46.504Z,10.53
2023-01-26T14:04:22.804Z,11.40
2023-01-26T14:06:56.394Z,9.73
2023-01-26T14:09:30.430Z,9.87
2023-01-26T14:12:23.767Z,10.97
2023-01-26T14:14:54.878Z,10.00
2023-01-26T14:17:33.406Z,9.70
2023-01-26T14:20:03.660Z,9.17
2023-01-26T14:22:31.387Z,10.13
2023-01-26T14:24:58.725Z,10.17
2023-01-26T14:27:42.420Z,8.93
2023-01-26T14:30:29.818Z,10.27
2023-01-26T14:33:17.596Z,9.47
2023-01-26T14:36:02.591Z,8.93
2023-01-26T14:38:39.152Z,8.43
2023-01-26T14:41:23.375Z,8.37
2023-01-26T14:43:58.541Z,8.07
2023-01-26T14:46:35.206Z,8.03
2023-01-26T14:49:07.409Z,7.47
2023-01-26T14:51:36.707Z,7.67
2023-01-26T14:54:13.294Z,7.63
2023-01-26T14:56:41.023Z,7.57
2023-01-26T14:59:18.861Z,6.07
2023-01-26T15:01:47.333Z,6.97
2023-01-26T15:04:29.180Z,5.33
2023-01-26T15:06:56.547Z,5.97
2023-01-26T15:09:28.416Z,5.40
2023-01-26T15:12:17.044Z,5.40
2023-01-26T15:14:57.610Z,5.40
2023-01-26T15:17:42.122Z,5.27
2023-01-26T15:20:15.456Z,4.90
2023-01-26T15:22:50.311Z,5.20
2023-01-26T15:25:19.451Z,5.40
2023-01-26T15:27:52.303Z,5.50
2023-01-26T15:30:25.922Z,5.90
2023-01-26T15:32:53.410Z,5.17
2023-01-26T15:35:27.234Z,5.23
2023-01-26T15:38:03.085Z,5.37
2023-01-26T15:40:31.020Z,6.07
2023-01-26T15:43:14.340Z,6.33
2023-01-26T15:45:53.372Z,6.47
2023-01-26T15:48:24.087Z,6.17
2023-01-26T15:50:51.964Z,7.13
2023-01-26T15:53:21.763Z,7.43
2023-01-26T15:55:52.962Z,7.33
2023-01-26T15:58:20.370Z,6.43
2023-01-26T16:00:47.968Z,7.63
2023-01-26T16:03:18.151Z,6.87
2023-01-26T16:05:49.228Z,7.57
2023-01-26T16:08:17.851Z,8.53
2023-01-26T16:10:46.247Z,9.13
2023-01-26T16:13:17.827Z,9.93
2023-01-26T16:15:51.846Z,10.00
2023-01-26T16:18:19.930Z,9.47
2023-01-26T16:20:48.976Z,10.13
2023-01-26T16:23:22.647Z,10.67
2023-01-26T16:25:50.542Z,9.20
2023-01-26T16:28:18.661Z,10.90
2023-01-26T16:30:47.943Z,10.20
2023-01-26T16:33:18.275Z,11.83
2023-01-26T16:35:45.578Z,12.73
2023-01-26T16:38:13.340Z,12.03
2023-01-26T16:40:41.879Z,12.80
2023-01-26T16:43:23.803Z,12.67
2023-01-26T16:45:52.548Z,13.03
2023-01-26T16:48:21.912Z,13.97
2023-01-26T16:50:52.987Z,14.60
2023-01-26T16:53:29.331Z,15.43
2023-01-26T16:55:56.790Z,15.07
2023-01-26T16:58:26.490Z,15.77
2023-01-26T17:00:57.113Z,14.87
2023-01-26T17:03:24.568Z,17.20
2023-01-26T17:05:51.932Z,16.57
2023-01-26T17:08:19.309Z,16.37
2023-01-26T17:11:01.227Z,17.80
2023-01-26T17:13:29.207Z,16.00
2023-01-26T17:15:57.443Z,17.80
2023-01-26T17:18:25.383Z,17.93
2023-01-26T17:20:52.662Z,17.33
2023-01-26T17:23:20.606Z,17.83
2023-01-26T17:25:48.028Z,19.20
2023-01-26T17:28:15.343Z,19.80
2023-01-26T17:30:42.731Z,20.80
2023-01-26T17:33:11.234Z,18.40
2023-01-26T17:35:38.704Z,18.90
2023-01-26T17:38:05.881Z,19.73
2023-01-26T17:40:33.318Z,18.63
2023-01-26T17:43:00.651Z,20.23
2023-01-26T17:45:28.568Z,20.10
2023-01-26T17:47:56.055Z,20.20
2023-01-26T17:50:23.360Z,20.80
2023-01-26T17:52:50.563Z,19.57
2023-01-26T17:55:17.923Z,22.33
2023-01-26T17:57:46.083Z,20.90
2023-01-26T18:00:13.999Z,21.37
2023-01-26T18:02:41.276Z,21.37
2023-01-26T18:05:09.333Z,22.03
2023-01-26T18:07:36.694Z,20.70
2023-01-26T18:10:04.600Z,20.70
2023-01-26T18:12:33.202Z,24.13
2023-01-26T18:15:00.529Z,23.40
2023-01-26T18:17:27.777Z,21.07
2023-01-26T18:19:55.076Z,21.40
2023-01-26T18:22:22.354Z,23.87
2023-01-26T18:24:49.590Z,21.50
2023-01-26T18:27:16.993Z,24.30
2023-01-26T18:29:44.454Z,22.70
2023-01-26T18:32:11.738Z,28.57
2023-01-26T18:34:41.819Z,22.90
2023-01-26T18:37:10.302Z,24.20
2023-01-26T18:39:37.710Z,23.47
2023-01-26T18:42:05.459Z,22.90
2023-01-26T18:44:32.861Z,23.77
2023-01-26T18:47:00.073Z,24.63
2023-01-26T18:49:27.351Z,23.63
2023-01-26T18:51:54.735Z,24.67
2023-01-26T18:54:22.207Z,23.50
2023-01-26T18:56:49.545Z,21.23
2023-01-26T18:59:17.816Z,25.53
2023-01-26T19:01:45.142Z,22.40
2023-01-26T19:04:12.621Z,24.00
2023-01-26T19:06:39.863Z,25.60
2023-01-26T19:09:08.506Z,26.90
2023-01-26T19:11:38.257Z,24.70
2023-01-26T19:14:07.354Z,22.77
2023-01-26T19:16:34.934Z,25.37
2023-01-26T19:19:02.154Z,24.23
2023-01-26T19:21:29.533Z,25.27
2023-01-26T19:23:58.701Z,24.00
2023-01-26T19:26:29.244Z,22.10
2023-01-26T19:28:57.083Z,23.80
2023-01-26T19:31:26.464Z,19.97
2023-01-26T19:33:56.071Z,20.97
2023-01-26T19:36:25.029Z,25.03
2023-01-26T19:38:52.690Z,24.90
2023-01-26T19:41:21.194Z,22.83
2023-01-26T19:43:50.370Z,24.47
2023-01-26T19:46:18.795Z,24.93
2023-01-26T19:48:46.690Z,23.77
2023-01-26T19:51:18.279Z,24.57
2023-01-26T19:53:48.140Z,22.27
2023-01-26T19:56:18.778Z,22.13
2023-01-26T19:58:57.243Z,22.13
2023-01-26T20:01:26.849Z,25.47
2023-01-26T20:03:58.877Z,23.63
2023-01-26T20:06:31.965Z,22.27
2023-01-26T20:08:59.815Z,26.53
2023-01-26T20:11:29.801Z,24.17
2023-01-26T20:14:02.289Z,25.53
2023-01-26T20:16:30.911Z,23.17
2023-01-26T20:18:59.626Z,24.27
2023-01-26T20:21:28.816Z,26.60
2023-01-26T20:23:56.511Z,22.33
2023-01-26T20:26:26.329Z,21.20
2023-01-26T20:28:57.681Z,23.07
2023-01-26T20:31:26.543Z,24.47
2023-01-26T20:33:54.708Z,20.57
2023-01-26T20:36:25.288Z,24.10
2023-01-26T20:38:53.354Z,22.90
2023-01-26T20:41:24.222Z,22.03
2023-01-26T20:43:59.608Z,22.63
2023-01-26T20:46:30.745Z,23.20
2023-01-26T20:48:58.476Z,23.83
2023-01-26T20:51:33.504Z,22.17
2023-01-26T20:54:01.964Z,21.73
2023-01-26T20:56:29.642Z,22.00
2023-01-26T20:58:57.191Z,21.97
2023-01-26T21:01:25.476Z,21.83
2023-01-26T21:03:53.227Z,22.17
2023-01-26T21:06:22.266Z,22.73
2023-01-26T21:08:52.380Z,23.83
2023-01-26T21:11:20.244Z,23.43
2023-01-26T21:13:48.332Z,22.57
2023-01-26T21:16:16.890Z,22.90
2023-01-26T21:18:46.069Z,21.47
2023-01-26T21:21:17.491Z,19.67
2023-01-26T21:23:45.671Z,22.63
2023-01-26T21:26:22.617Z,21.93
2023-01-26T21:28:58.827Z,23.57
2023-01-26T21:31:29.289Z,20.93
2023-01-26T21:33:58.567Z,22.03
2023-01-26T21:36:28.877Z,22.13
2023-01-26T21:38:58.007Z,23.20
2023-01-26T21:41:46.476Z,20.93
2023-01-26T21:44:27.999Z,22.17
2023-01-26T21:47:04.361Z,20.63
2023-01-26T21:49:31.628Z,21.83
2023-01-26T21:52:17.295Z,21.00
2023-01-26T21:54:44.621Z,18.60
2023-01-26T21:57:30.363Z,19.00
2023-01-26T21:59:57.779Z,20.87
2023-01-26T22:02:25.447Z,17.90
2023-01-26T22:04:52.748Z,19.40
2023-01-26T22:07:20.056Z,21.13
2023-01-26T22:09:48.158Z,21.23
2023-01-26T22:12:15.788Z,18.73
2023-01-26T22:14:42.988Z,19.87
2023-01-26T22:17:10.239Z,21.13
2023-01-26T22:19:37.449Z,21.53
2023-01-26T22:22:04.894Z,19.67
2023-01-26T22:24:32.395Z,18.30
2023-01-26T22:26:59.731Z,19.33
2023-01-26T22:29:27.190Z,17.23
2023-01-26T22:31:54.490Z,17.77
2023-01-26T22:34:21.860Z,18.37
2023-01-26T22:36:49.313Z,17.40
2023-01-26T22:39:16.910Z,16.47
2023-01-26T22:41:44.335Z,17.80
2023-01-26T22:44:11.633Z,15.60
2023-01-26T22:46:39.395Z,15.97
2023-01-26T22:49:06.757Z,18.00
2023-01-26T22:51:38.753Z,15.40
2023-01-26T22:54:06.029Z,15.97
2023-01-26T22:56:33.710Z,18.13
2023-01-26T22:59:01.364Z,16.73
2023-01-26T23:01:31.233Z,14.27
2023-01-26T23:04:00.074Z,14.43
2023-01-26T23:06:27.920Z,15.37
2023-01-26T23:08:55.728Z,14.53
2023-01-26T23:11:25.283Z,14.43
2023-01-26T23:13:54.148Z,15.73
2023-01-26T23:16:23.418Z,14.07
2023-01-26T23:18:52.467Z,14.03
2023-01-26T23:21:20.327Z,14.03
2023-01-26T23:23:47.636Z,13.07
2023-01-26T23:26:15.078Z,13.20
2023-01-26T23:28:43.396Z,15.40
2023-01-26T23:31:12.633Z,13.97
2023-01-26T23:33:40.186Z,13.20
2023-01-26T23:36:08.551Z,14.20
2023-01-26T23:38:36.387Z,13.43
2023-01-26T23:41:08.641Z,13.53
2023-01-26T23:43:36.551Z,14.50
2023-01-26T23:46:05.854Z,12.70
2023-01-26T23:48:33.189Z,12.30
2023-01-26T23:51:02.971Z,12.57
2023-01-26T23:53:40.432Z,13.03
2023-01-26T23:56:17.790Z,12.23
2023-01-26T23:58:45.840Z,12.63
